sensor_id;sensor_type;location;lat;lon;timestamp;P1;durP1;ratioP1;P2;durP2;ratioP2
7179;SDS011;3631;42.152;24.756;2023-02-19T00:01:40;6.40;;;5.57;;
7179;SDS011;3631;42.152;24.756;2023-02-19T00:04:11;6.17;;;5.57;;
7179;SDS011;3631;42.152;24.756;2023-02-19T00:06:39;6.97;;;6.07;;
7179;SDS011;3631;42.152;24.756;2023-02-19T00:09:06;6.40;;;5.80;;
7179;SDS011;3631;42.152;24.756;2023-02-19T00:11:34;7.80;;;5.63;;
7179;SDS011;3631;42.152;24.756;2023-02-19T00:14:01;7.73;;;5.67;;
7179;SDS011;3631;42.152;24.756;2023-02-19T00:16:29;6.90;;;5.87;;
7179;SDS011;3631;42.152;24.756;2023-02-19T00:18:58;11.60;;;6.00;;
7179;SDS011;3631;42.152;24.756;2023-02-19T00:21:28;6.80;;;6.03;;
7179;SDS011;3631;42.152;24.756;2023-02-19T00:23:55;8.33;;;7.17;;
7179;SDS011;3631;42.152;24.756;2023-02-19T00:26:24;11.10;;;6.87;;
7179;SDS011;3631;42.152;24.756;2023-02-19T00:28:54;9.13;;;7.20;;
7179;SDS011;3631;42.152;24.756;2023-02-19T00:31:22;11.10;;;8.10;;
7179;SDS011;3631;42.152;24.756;2023-02-19T00:33:52;16.43;;;8.37;;
7179;SDS011;3631;42.152;24.756;2023-02-19T00:36:20;10.27;;;8.30;;
7179;SDS011;3631;42.152;24.756;2023-02-19T00:38:49;11.90;;;8.83;;
7179;SDS011;3631;42.152;24.756;2023-02-19T00:41:16;14.17;;;10.00;;
7179;SDS011;3631;42.152;24.756;2023-02-19T00:43:45;12.27;;;9.50;;
7179;SDS011;3631;42.152;24.756;2023-02-19T00:46:13;15.57;;;9.70;;
7179;SDS011;3631;42.152;24.756;2023-02-19T00:48:40;10.80;;;9.07;;
7179;SDS011;3631;42.152;24.756;2023-02-19T00:51:07;15.30;;;9.70;;
7179;SDS011;3631;42.152;24.756;2023-02-19T00:53:34;15.13;;;10.20;;
7179;SDS011;3631;42.152;24.756;2023-02-19T00:56:03;14.17;;;9.40;;
7179;SDS011;3631;42.152;24.756;2023-02-19T00:58:30;17.57;;;10.70;;
7179;SDS011;3631;42.152;24.756;2023-02-19T01:00:57;15.90;;;9.30;;
7179;SDS011;3631;42.152;24.756;2023-02-19T01:03:24;16.43;;;10.07;;
7179;SDS011;3631;42.152;24.756;2023-02-19T01:05:51;13.00;;;8.93;;
7179;SDS011;3631;42.152;24.756;2023-02-19T01:08:18;11.70;;;9.63;;
7179;SDS011;3631;42.152;24.756;2023-02-19T01:10:45;15.73;;;10.13;;
7179;SDS011;3631;42.152;24.756;2023-02-19T01:13:14;11.83;;;9.90;;
7179;SDS011;3631;42.152;24.756;2023-02-19T01:15:42;12.93;;;8.93;;
7179;SDS011;3631;42.152;24.756;2023-02-19T01:18:09;11.67;;;9.60;;
7179;SDS011;3631;42.152;24.756;2023-02-19T01:20:37;10.23;;;8.97;;
7179;SDS011;3631;42.152;24.756;2023-02-19T01:23:04;12.30;;;8.93;;
7179;SDS011;3631;42.152;24.756;2023-02-19T01:25:31;14.10;;;10.03;;
7179;SDS011;3631;42.152;24.756;2023-02-19T01:27:58;13.63;;;9.20;;
7179;SDS011;3631;42.152;24.756;2023-02-19T01:30:26;12.43;;;9.87;;
7179;SDS011;3631;42.152;24.756;2023-02-19T01:32:53;14.17;;;9.30;;
7179;SDS011;3631;42.152;24.756;2023-02-19T01:35:20;14.20;;;9.13;;
7179;SDS011;3631;42.152;24.756;2023-02-19T01:37:48;13.07;;;9.23;;
7179;SDS011;3631;42.152;24.756;2023-02-19T01:40:15;11.83;;;8.30;;
7179;SDS011;3631;42.152;24.756;2023-02-19T01:42:42;9.03;;;8.10;;
7179;SDS011;3631;42.152;24.756;2023-02-19T01:47:56;11.07;;;7.97;;
7179;SDS011;3631;42.152;24.756;2023-02-19T01:50:28;13.57;;;8.23;;
7179;SDS011;3631;42.152;24.756;2023-02-19T01:53:01;9.97;;;8.40;;
7179;SDS011;3631;42.152;24.756;2023-02-19T01:55:32;10.47;;;8.30;;
7179;SDS011;3631;42.152;24.756;2023-02-19T01:58:01;11.03;;;8.37;;
7179;SDS011;3631;42.152;24.756;2023-02-19T02:00:30;11.40;;;8.03;;
7179;SDS011;3631;42.152;24.756;2023-02-19T02:02:58;12.30;;;8.67;;
7179;SDS011;3631;42.152;24.756;2023-02-19T02:05:39;10.07;;;7.67;;
7179;SDS011;3631;42.152;24.756;2023-02-19T02:08:12;11.23;;;8.60;;
7179;SDS011;3631;42.152;24.756;2023-02-19T02:10:58;11.73;;;8.80;;
7179;SDS011;3631;42.152;24.756;2023-02-19T02:13:26;13.17;;;8.83;;
7179;SDS011;3631;42.152;24.756;2023-02-19T02:15:57;11.90;;;9.30;;
7179;SDS011;3631;42.152;24.756;2023-02-19T02:18:34;14.03;;;8.93;;
7179;SDS011;3631;42.152;24.756;2023-02-19T02:24:43;10.97;;;8.73;;
7179;SDS011;3631;42.152;24.756;2023-02-19T02:33:07;9.23;;;8.00;;
7179;SDS011;3631;42.152;24.756;2023-02-19T02:35:44;10.80;;;7.73;;
7179;SDS011;3631;42.152;24.756;2023-02-19T02:38:14;9.83;;;7.07;;
7179;SDS011;3631;42.152;24.756;2023-02-19T02:40:45;8.03;;;7.23;;
7179;SDS011;3631;42.152;24.756;2023-02-19T02:43:13;9.43;;;7.07;;
7179;SDS011;3631;42.152;24.756;2023-02-19T02:45:41;7.80;;;7.00;;
7179;SDS011;3631;42.152;24.756;2023-02-19T02:48:16;7.10;;;6.50;;
7179;SDS011;3631;42.152;24.756;2023-02-19T02:50:51;7.87;;;6.87;;
7179;SDS011;3631;42.152;24.756;2023-02-19T02:53:22;7.17;;;6.43;;
7179;SDS011;3631;42.152;24.756;2023-02-19T02:56:13;8.37;;;6.50;;
7179;SDS011;3631;42.152;24.756;2023-02-19T02:58:41;7.47;;;5.80;;
7179;SDS011;3631;42.152;24.756;2023-02-19T03:01:12;8.10;;;6.67;;
7179;SDS011;3631;42.152;24.756;2023-02-19T03:04:00;7.07;;;6.27;;
7179;SDS011;3631;42.152;24.756;2023-02-19T03:06:32;7.73;;;6.17;;
7179;SDS011;3631;42.152;24.756;2023-02-19T03:09:01;8.87;;;6.40;;
7179;SDS011;3631;42.152;24.756;2023-02-19T03:11:35;7.63;;;6.30;;
7179;SDS011;3631;42.152;24.756;2023-02-19T03:14:24;6.60;;;5.93;;
7179;SDS011;3631;42.152;24.756;2023-02-19T03:17:16;9.43;;;6.33;;
7179;SDS011;3631;42.152;24.756;2023-02-19T03:20:04;7.33;;;6.57;;
7179;SDS011;3631;42.152;24.756;2023-02-19T03:22:36;9.03;;;6.80;;
7179;SDS011;3631;42.152;24.756;2023-02-19T03:25:06;10.60;;;7.23;;
7179;SDS011;3631;42.152;24.756;2023-02-19T03:27:55;6.83;;;6.17;;
7179;SDS011;3631;42.152;24.756;2023-02-19T03:30:26;8.37;;;6.60;;
7179;SDS011;3631;42.152;24.756;2023-02-19T03:32:58;10.17;;;6.63;;
7179;SDS011;3631;42.152;24.756;2023-02-19T03:35:29;7.10;;;6.40;;
7179;SDS011;3631;42.152;24.756;2023-02-19T03:38:00;7.70;;;6.17;;
7179;SDS011;3631;42.152;24.756;2023-02-19T03:40:33;6.93;;;5.30;;
7179;SDS011;3631;42.152;24.756;2023-02-19T03:43:10;5.87;;;4.80;;
7179;SDS011;3631;42.152;24.756;2023-02-19T03:45:47;4.77;;;4.37;;
7179;SDS011;3631;42.152;24.756;2023-02-19T03:48:23;6.20;;;5.00;;
7179;SDS011;3631;42.152;24.756;2023-02-19T03:50:57;6.27;;;4.93;;
7179;SDS011;3631;42.152;24.756;2023-02-19T03:53:31;5.03;;;4.53;;
7179;SDS011;3631;42.152;24.756;2023-02-19T03:56:06;5.17;;;4.77;;
7179;SDS011;3631;42.152;24.756;2023-02-19T03:58:39;5.00;;;4.50;;
7179;SDS011;3631;42.152;24.756;2023-02-19T04:01:14;6.33;;;4.03;;
7179;SDS011;3631;42.152;24.756;2023-02-19T04:03:50;4.63;;;4.23;;
7179;SDS011;3631;42.152;24.756;2023-02-19T04:06:21;5.50;;;4.27;;
7179;SDS011;3631;42.152;24.756;2023-02-19T04:08:52;5.40;;;4.47;;
7179;SDS011;3631;42.152;24.756;2023-02-19T04:11:22;4.70;;;4.27;;
7179;SDS011;3631;42.152;24.756;2023-02-19T04:13:53;7.97;;;4.83;;
7179;SDS011;3631;42.152;24.756;2023-02-19T04:16:25;4.90;;;4.40;;
7179;SDS011;3631;42.152;24.756;2023-02-19T04:18:56;4.60;;;4.20;;
7179;SDS011;3631;42.152;24.756;2023-02-19T04:21:28;6.23;;;4.43;;
7179;SDS011;3631;42.152;24.756;2023-02-19T04:23:57;4.40;;;4.00;;
7179;SDS011;3631;42.152;24.756;2023-02-19T04:26:29;7.53;;;4.33;;
7179;SDS011;3631;42.152;24.756;2023-02-19T04:28:57;4.10;;;3.80;;
7179;SDS011;3631;42.152;24.756;2023-02-19T04:31:24;5.60;;;3.40;;
7179;SDS011;3631;42.152;24.756;2023-02-19T04:33:54;3.53;;;3.23;;
7179;SDS011;3631;42.152;24.756;2023-02-19T04:36:21;4.80;;;3.30;;
7179;SDS011;3631;42.152;24.756;2023-02-19T04:38:48;6.83;;;3.93;;
7179;SDS011;3631;42.152;24.756;2023-02-19T04:41:15;3.73;;;3.10;;
7179;SDS011;3631;42.152;24.756;2023-02-19T04:43:42;4.03;;;3.27;;
7179;SDS011;3631;42.152;24.756;2023-02-19T04:46:08;4.27;;;3.67;;
7179;SDS011;3631;42.152;24.756;2023-02-19T04:48:35;4.73;;;4.20;;
7179;SDS011;3631;42.152;24.756;2023-02-19T04:51:05;4.33;;;3.80;;
7179;SDS011;3631;42.152;24.756;2023-02-19T04:53:33;5.43;;;3.23;;
7179;SDS011;3631;42.152;24.756;2023-02-19T04:56:04;3.90;;;3.60;;
7179;SDS011;3631;42.152;24.756;2023-02-19T04:58:31;3.90;;;3.60;;
7179;SDS011;3631;42.152;24.756;2023-02-19T05:00:58;4.07;;;3.77;;
7179;SDS011;3631;42.152;24.756;2023-02-19T05:03:25;4.10;;;3.50;;
7179;SDS011;3631;42.152;24.756;2023-02-19T05:05:52;3.57;;;3.37;;
7179;SDS011;3631;42.152;24.756;2023-02-19T05:08:20;3.60;;;3.30;;
7179;SDS011;3631;42.152;24.756;2023-02-19T05:10:47;3.70;;;3.40;;
7179;SDS011;3631;42.152;24.756;2023-02-19T05:13:14;3.53;;;3.23;;
7179;SDS011;3631;42.152;24.756;2023-02-19T05:15:41;4.57;;;3.43;;
7179;SDS011;3631;42.152;24.756;2023-02-19T05:18:08;4.93;;;2.87;;
7179;SDS011;3631;42.152;24.756;2023-02-19T05:20:35;5.63;;;3.57;;
7179;SDS011;3631;42.152;24.756;2023-02-19T05:23:02;3.53;;;3.23;;
7179;SDS011;3631;42.152;24.756;2023-02-19T05:25:30;5.93;;;3.27;;
7179;SDS011;3631;42.152;24.756;2023-02-19T05:27:57;3.57;;;3.23;;
7179;SDS011;3631;42.152;24.756;2023-02-19T05:30:38;5.63;;;2.87;;
7179;SDS011;3631;42.152;24.756;2023-02-19T05:33:05;8.97;;;3.57;;
7179;SDS011;3631;42.152;24.756;2023-02-19T05:35:32;3.73;;;3.17;;
7179;SDS011;3631;42.152;24.756;2023-02-19T05:37:59;6.83;;;3.40;;
7179;SDS011;3631;42.152;24.756;2023-02-19T05:40:26;5.17;;;3.20;;
7179;SDS011;3631;42.152;24.756;2023-02-19T05:42:54;6.70;;;4.07;;
7179;SDS011;3631;42.152;24.756;2023-02-19T05:45:21;4.33;;;3.77;;
7179;SDS011;3631;42.152;24.756;2023-02-19T05:47:48;4.37;;;3.90;;
7179;SDS011;3631;42.152;24.756;2023-02-19T05:50:15;4.63;;;4.00;;
7179;SDS011;3631;42.152;24.756;2023-02-19T05:52:42;4.70;;;4.07;;
7179;SDS011;3631;42.152;24.756;2023-02-19T05:55:09;4.70;;;3.90;;
7179;SDS011;3631;42.152;24.756;2023-02-19T05:57:38;4.47;;;4.07;;
7179;SDS011;3631;42.152;24.756;2023-02-19T06:00:09;5.70;;;3.80;;
7179;SDS011;3631;42.152;24.756;2023-02-19T06:02:36;4.30;;;3.73;;
7179;SDS011;3631;42.152;24.756;2023-02-19T06:05:04;6.10;;;4.70;;
7179;SDS011;3631;42.152;24.756;2023-02-19T06:07:31;5.07;;;4.60;;
7179;SDS011;3631;42.152;24.756;2023-02-19T06:09:58;4.23;;;3.90;;
7179;SDS011;3631;42.152;24.756;2023-02-19T06:12:25;4.90;;;4.40;;
7179;SDS011;3631;42.152;24.756;2023-02-19T06:14:52;4.30;;;3.90;;
7179;SDS011;3631;42.152;24.756;2023-02-19T06:17:20;5.18;;;4.28;;
7179;SDS011;3631;42.152;24.756;2023-02-19T06:19:47;3.97;;;3.70;;
7179;SDS011;3631;42.152;24.756;2023-02-19T06:22:14;4.38;;;4.07;;
7179;SDS011;3631;42.152;24.756;2023-02-19T06:24:42;5.47;;;4.47;;
7179;SDS011;3631;42.152;24.756;2023-02-19T06:27:09;5.63;;;4.03;;
7179;SDS011;3631;42.152;24.756;2023-02-19T06:29:36;4.28;;;3.97;;
7179;SDS011;3631;42.152;24.756;2023-02-19T06:32:03;7.05;;;4.43;;
7179;SDS011;3631;42.152;24.756;2023-02-19T06:34:32;4.32;;;3.97;;
7179;SDS011;3631;42.152;24.756;2023-02-19T06:36:59;5.55;;;5.05;;
7179;SDS011;3631;42.152;24.756;2023-02-19T06:39:27;4.00;;;3.70;;
7179;SDS011;3631;42.152;24.756;2023-02-19T06:41:54;5.07;;;4.28;;
7179;SDS011;3631;42.152;24.756;2023-02-19T06:44:21;4.78;;;4.10;;
7179;SDS011;3631;42.152;24.756;2023-02-19T06:46:48;5.25;;;4.72;;
7179;SDS011;3631;42.152;24.756;2023-02-19T06:49:15;4.55;;;4.25;;
7179;SDS011;3631;42.152;24.756;2023-02-19T06:51:43;6.03;;;4.28;;
7179;SDS011;3631;42.152;24.756;2023-02-19T06:54:10;5.57;;;4.53;;
7179;SDS011;3631;42.152;24.756;2023-02-19T06:56:38;4.60;;;4.20;;
7179;SDS011;3631;42.152;24.756;2023-02-19T06:59:07;4.53;;;4.10;;
7179;SDS011;3631;42.152;24.756;2023-02-19T07:01:36;4.13;;;3.60;;
7179;SDS011;3631;42.152;24.756;2023-02-19T07:04:04;7.57;;;5.10;;
7179;SDS011;3631;42.152;24.756;2023-02-19T07:06:32;7.07;;;4.38;;
7179;SDS011;3631;42.152;24.756;2023-02-19T07:09:02;6.53;;;4.40;;
7179;SDS011;3631;42.152;24.756;2023-02-19T07:11:31;4.35;;;4.00;;
7179;SDS011;3631;42.152;24.756;2023-02-19T07:14:00;4.97;;;4.20;;
7179;SDS011;3631;42.152;24.756;2023-02-19T07:16:29;4.45;;;4.13;;
7179;SDS011;3631;42.152;24.756;2023-02-19T07:18:56;4.90;;;4.60;;
7179;SDS011;3631;42.152;24.756;2023-02-19T07:21:24;5.53;;;4.93;;
7179;SDS011;3631;42.152;24.756;2023-02-19T07:23:52;5.10;;;4.60;;
7179;SDS011;3631;42.152;24.756;2023-02-19T07:26:21;6.85;;;4.65;;
7179;SDS011;3631;42.152;24.756;2023-02-19T07:28:49;4.97;;;4.57;;
7179;SDS011;3631;42.152;24.756;2023-02-19T07:31:17;5.10;;;4.60;;
7179;SDS011;3631;42.152;24.756;2023-02-19T07:33:46;5.05;;;4.65;;
7179;SDS011;3631;42.152;24.756;2023-02-19T07:36:14;6.18;;;4.60;;
7179;SDS011;3631;42.152;24.756;2023-02-19T07:38:42;4.90;;;4.45;;
7179;SDS011;3631;42.152;24.756;2023-02-19T07:41:09;5.00;;;4.50;;
7179;SDS011;3631;42.152;24.756;2023-02-19T07:43:37;6.25;;;4.57;;
7179;SDS011;3631;42.152;24.756;2023-02-19T07:46:05;5.78;;;5.13;;
7179;SDS011;3631;42.152;24.756;2023-02-19T07:48:33;7.03;;;4.90;;
7179;SDS011;3631;42.152;24.756;2023-02-19T07:51:00;5.72;;;4.75;;
7179;SDS011;3631;42.152;24.756;2023-02-19T07:53:29;5.70;;;5.20;;
7179;SDS011;3631;42.152;24.756;2023-02-19T07:55:57;5.85;;;4.80;;
7179;SDS011;3631;42.152;24.756;2023-02-19T07:58:26;5.40;;;4.53;;
7179;SDS011;3631;42.152;24.756;2023-02-19T08:00:54;5.63;;;4.80;;
7179;SDS011;3631;42.152;24.756;2023-02-19T08:03:21;5.57;;;4.85;;
7179;SDS011;3631;42.152;24.756;2023-02-19T08:05:48;8.43;;;5.53;;
7179;SDS011;3631;42.152;24.756;2023-02-19T08:08:17;5.03;;;4.50;;
7179;SDS011;3631;42.152;24.756;2023-02-19T08:10:44;12.90;;;5.32;;
7179;SDS011;3631;42.152;24.756;2023-02-19T08:13:29;8.27;;;5.50;;
7179;SDS011;3631;42.152;24.756;2023-02-19T08:16:07;5.43;;;5.03;;
7179;SDS011;3631;42.152;24.756;2023-02-19T08:18:36;27.60;;;6.20;;
7179;SDS011;3631;42.152;24.756;2023-02-19T08:21:03;7.22;;;4.97;;
7179;SDS011;3631;42.152;24.756;2023-02-19T08:23:30;7.38;;;5.45;;
7179;SDS011;3631;42.152;24.756;2023-02-19T08:25:58;7.65;;;4.82;;
7179;SDS011;3631;42.152;24.756;2023-02-19T08:28:26;10.50;;;5.43;;
7179;SDS011;3631;42.152;24.756;2023-02-19T08:30:57;5.47;;;4.70;;
7179;SDS011;3631;42.152;24.756;2023-02-19T08:33:27;5.70;;;4.90;;
7179;SDS011;3631;42.152;24.756;2023-02-19T08:35:54;6.13;;;5.63;;
7179;SDS011;3631;42.152;24.756;2023-02-19T08:38:22;6.95;;;5.47;;
7179;SDS011;3631;42.152;24.756;2023-02-19T08:40:49;6.70;;;4.78;;
7179;SDS011;3631;42.152;24.756;2023-02-19T08:43:16;8.95;;;5.18;;
7179;SDS011;3631;42.152;24.756;2023-02-19T08:45:43;12.48;;;5.43;;
7179;SDS011;3631;42.152;24.756;2023-02-19T08:48:12;11.23;;;5.47;;
7179;SDS011;3631;42.152;24.756;2023-02-19T08:50:39;6.80;;;5.25;;
7179;SDS011;3631;42.152;24.756;2023-02-19T08:53:06;8.57;;;5.53;;
7179;SDS011;3631;42.152;24.756;2023-02-19T08:55:35;6.55;;;5.88;;
7179;SDS011;3631;42.152;24.756;2023-02-19T08:58:03;6.15;;;5.53;;
7179;SDS011;3631;42.152;24.756;2023-02-19T09:00:30;6.83;;;6.23;;
7179;SDS011;3631;42.152;24.756;2023-02-19T09:02:57;8.57;;;6.18;;
7179;SDS011;3631;42.152;24.756;2023-02-19T09:05:25;5.93;;;5.40;;
7179;SDS011;3631;42.152;24.756;2023-02-19T09:07:52;10.70;;;5.43;;
7179;SDS011;3631;42.152;24.756;2023-02-19T09:10:19;6.07;;;5.50;;
7179;SDS011;3631;42.152;24.756;2023-02-19T09:12:46;6.32;;;5.82;;
7179;SDS011;3631;42.152;24.756;2023-02-19T09:15:13;7.90;;;5.75;;
7179;SDS011;3631;42.152;24.756;2023-02-19T09:17:40;6.18;;;5.68;;
7179;SDS011;3631;42.152;24.756;2023-02-19T09:20:07;12.27;;;5.32;;
7179;SDS011;3631;42.152;24.756;2023-02-19T09:22:36;11.23;;;5.07;;
7179;SDS011;3631;42.152;24.756;2023-02-19T09:25:03;7.88;;;5.53;;
7179;SDS011;3631;42.152;24.756;2023-02-19T09:27:30;6.90;;;5.03;;
7179;SDS011;3631;42.152;24.756;2023-02-19T09:29:57;5.63;;;5.13;;
7179;SDS011;3631;42.152;24.756;2023-02-19T09:32:24;8.35;;;4.95;;
7179;SDS011;3631;42.152;24.756;2023-02-19T09:34:51;9.23;;;5.20;;
7179;SDS011;3631;42.152;24.756;2023-02-19T09:37:18;8.52;;;5.25;;
7179;SDS011;3631;42.152;24.756;2023-02-19T09:39:46;9.52;;;4.93;;
7179;SDS011;3631;42.152;24.756;2023-02-19T09:42:14;11.18;;;5.47;;
7179;SDS011;3631;42.152;24.756;2023-02-19T09:44:44;12.38;;;5.30;;
7179;SDS011;3631;42.152;24.756;2023-02-19T09:47:14;7.72;;;5.32;;
7179;SDS011;3631;42.152;24.756;2023-02-19T09:49:43;6.35;;;4.55;;
7179;SDS011;3631;42.152;24.756;2023-02-19T09:52:17;10.50;;;5.18;;
7179;SDS011;3631;42.152;24.756;2023-02-19T09:54:49;11.38;;;5.05;;
7179;SDS011;3631;42.152;24.756;2023-02-19T09:57:21;15.88;;;5.30;;
7179;SDS011;3631;42.152;24.756;2023-02-19T09:59:50;12.75;;;5.00;;
7179;SDS011;3631;42.152;24.756;2023-02-19T10:02:24;5.00;;;4.65;;
7179;SDS011;3631;42.152;24.756;2023-02-19T10:04:54;4.45;;;4.15;;
7179;SDS011;3631;42.152;24.756;2023-02-19T10:07:23;5.50;;;4.25;;
7179;SDS011;3631;42.152;24.756;2023-02-19T10:09:54;8.90;;;4.53;;
7179;SDS011;3631;42.152;24.756;2023-02-19T10:12:25;5.70;;;4.15;;
7179;SDS011;3631;42.152;24.756;2023-02-19T10:14:54;9.55;;;4.43;;
7179;SDS011;3631;42.152;24.756;2023-02-19T10:17:30;5.00;;;4.03;;
7179;SDS011;3631;42.152;24.756;2023-02-19T10:20:00;6.32;;;4.28;;
7179;SDS011;3631;42.152;24.756;2023-02-19T10:22:29;4.30;;;3.88;;
7179;SDS011;3631;42.152;24.756;2023-02-19T10:24:59;5.68;;;4.65;;
7179;SDS011;3631;42.152;24.756;2023-02-19T10:27:26;4.43;;;4.13;;
7179;SDS011;3631;42.152;24.756;2023-02-19T10:29:55;4.70;;;4.28;;
7179;SDS011;3631;42.152;24.756;2023-02-19T10:32:24;6.78;;;3.92;;
7179;SDS011;3631;42.152;24.756;2023-02-19T10:35:06;4.45;;;4.15;;
7179;SDS011;3631;42.152;24.756;2023-02-19T10:37:35;5.20;;;4.00;;
7179;SDS011;3631;42.152;24.756;2023-02-19T10:42:44;5.20;;;4.80;;
7179;SDS011;3631;42.152;24.756;2023-02-19T10:45:16;5.55;;;4.65;;
7179;SDS011;3631;42.152;24.756;2023-02-19T10:47:45;4.10;;;3.80;;
7179;SDS011;3631;42.152;24.756;2023-02-19T10:50:18;4.68;;;4.28;;
7179;SDS011;3631;42.152;24.756;2023-02-19T10:52:51;4.40;;;4.00;;
7179;SDS011;3631;42.152;24.756;2023-02-19T10:55:26;4.20;;;3.88;;
7179;SDS011;3631;42.152;24.756;2023-02-19T10:57:56;4.68;;;4.25;;
7179;SDS011;3631;42.152;24.756;2023-02-19T11:00:24;6.07;;;5.57;;
7179;SDS011;3631;42.152;24.756;2023-02-19T11:03:13;9.07;;;7.15;;
7179;SDS011;3631;42.152;24.756;2023-02-19T11:05:56;39.28;;;18.60;;
7179;SDS011;3631;42.152;24.756;2023-02-19T11:08:27;36.13;;;18.17;;
7179;SDS011;3631;42.152;24.756;2023-02-19T11:10:57;12.93;;;9.02;;
7179;SDS011;3631;42.152;24.756;2023-02-19T11:13:25;6.68;;;5.05;;
7179;SDS011;3631;42.152;24.756;2023-02-19T11:15:56;4.82;;;4.50;;
7179;SDS011;3631;42.152;24.756;2023-02-19T11:18:25;4.88;;;4.40;;
7179;SDS011;3631;42.152;24.756;2023-02-19T11:20:54;4.82;;;4.43;;
7179;SDS011;3631;42.152;24.756;2023-02-19T11:23:24;5.10;;;4.35;;
7179;SDS011;3631;42.152;24.756;2023-02-19T11:25:54;4.72;;;4.43;;
7179;SDS011;3631;42.152;24.756;2023-02-19T11:28:28;5.35;;;4.85;;
7179;SDS011;3631;42.152;24.756;2023-02-19T11:33:49;4.97;;;4.50;;
7179;SDS011;3631;42.152;24.756;2023-02-19T11:36:25;4.35;;;4.05;;
7179;SDS011;3631;42.152;24.756;2023-02-19T11:38:57;7.20;;;4.32;;
7179;SDS011;3631;42.152;24.756;2023-02-19T11:44:34;5.38;;;4.65;;
7179;SDS011;3631;42.152;24.756;2023-02-19T11:47:27;5.55;;;5.05;;
7179;SDS011;3631;42.152;24.756;2023-02-19T11:50:02;6.10;;;4.75;;
7179;SDS011;3631;42.152;24.756;2023-02-19T11:52:41;6.13;;;5.07;;
7179;SDS011;3631;42.152;24.756;2023-02-19T11:55:12;5.00;;;4.60;;
7179;SDS011;3631;42.152;24.756;2023-02-19T11:57:50;5.78;;;5.30;;
7179;SDS011;3631;42.152;24.756;2023-02-19T12:00:28;4.82;;;4.53;;
7179;SDS011;3631;42.152;24.756;2023-02-19T12:06:09;4.90;;;4.50;;
7179;SDS011;3631;42.152;24.756;2023-02-19T12:09:01;4.55;;;4.18;;
7179;SDS011;3631;42.152;24.756;2023-02-19T12:11:48;5.10;;;4.70;;
7179;SDS011;3631;42.152;24.756;2023-02-19T12:14:39;5.47;;;4.93;;
7179;SDS011;3631;42.152;24.756;2023-02-19T12:17:39;5.40;;;5.00;;
7179;SDS011;3631;42.152;24.756;2023-02-19T12:20:25;5.40;;;5.00;;
7179;SDS011;3631;42.152;24.756;2023-02-19T12:23:02;5.50;;;5.10;;
7179;SDS011;3631;42.152;24.756;2023-02-19T12:25:46;4.75;;;4.30;;
7179;SDS011;3631;42.152;24.756;2023-02-19T12:28:30;4.88;;;4.47;;
7179;SDS011;3631;42.152;24.756;2023-02-19T12:31:20;5.43;;;5.03;;
7179;SDS011;3631;42.152;24.756;2023-02-19T12:36:48;4.43;;;4.13;;
7179;SDS011;3631;42.152;24.756;2023-02-19T12:39:23;4.65;;;4.25;;
7179;SDS011;3631;42.152;24.756;2023-02-19T12:42:02;4.63;;;4.22;;
7179;SDS011;3631;42.152;24.756;2023-02-19T12:44:37;4.15;;;3.85;;
7179;SDS011;3631;42.152;24.756;2023-02-19T12:47:14;4.65;;;4.00;;
7179;SDS011;3631;42.152;24.756;2023-02-19T12:49:45;5.47;;;4.47;;
7179;SDS011;3631;42.152;24.756;2023-02-19T12:52:17;4.97;;;4.57;;
7179;SDS011;3631;42.152;24.756;2023-02-19T12:54:47;5.32;;;4.68;;
7179;SDS011;3631;42.152;24.756;2023-02-19T12:57:18;5.72;;;5.20;;
7179;SDS011;3631;42.152;24.756;2023-02-19T12:59:50;6.65;;;6.05;;
7179;SDS011;3631;42.152;24.756;2023-02-19T13:02:26;5.85;;;5.30;;
7179;SDS011;3631;42.152;24.756;2023-02-19T13:05:01;6.68;;;6.07;;
7179;SDS011;3631;42.152;24.756;2023-02-19T13:07:34;5.47;;;5.07;;
7179;SDS011;3631;42.152;24.756;2023-02-19T13:10:12;8.15;;;6.00;;
7179;SDS011;3631;42.152;24.756;2023-02-19T13:12:47;6.40;;;5.80;;
7179;SDS011;3631;42.152;24.756;2023-02-19T13:15:17;6.13;;;5.53;;
7179;SDS011;3631;42.152;24.756;2023-02-19T13:17:51;7.93;;;5.70;;
7179;SDS011;3631;42.152;24.756;2023-02-19T13:20:22;6.10;;;5.30;;
7179;SDS011;3631;42.152;24.756;2023-02-19T13:22:54;5.55;;;5.13;;
7179;SDS011;3631;42.152;24.756;2023-02-19T13:25:51;8.50;;;6.20;;
7179;SDS011;3631;42.152;24.756;2023-02-19T13:28:36;6.60;;;6.00;;
7179;SDS011;3631;42.152;24.756;2023-02-19T13:31:21;6.93;;;5.72;;
7179;SDS011;3631;42.152;24.756;2023-02-19T13:34:01;5.90;;;5.35;;
7179;SDS011;3631;42.152;24.756;2023-02-19T13:36:36;6.22;;;5.63;;
7179;SDS011;3631;42.152;24.756;2023-02-19T13:39:03;6.43;;;5.93;;
7179;SDS011;3631;42.152;24.756;2023-02-19T13:41:33;6.80;;;6.25;;
7179;SDS011;3631;42.152;24.756;2023-02-19T13:44:05;6.05;;;5.65;;
7179;SDS011;3631;42.152;24.756;2023-02-19T13:46:38;5.50;;;4.97;;
7179;SDS011;3631;42.152;24.756;2023-02-19T13:49:24;5.90;;;5.40;;
7179;SDS011;3631;42.152;24.756;2023-02-19T13:58:34;9.30;;;5.75;;
7179;SDS011;3631;42.152;24.756;2023-02-19T14:04:21;5.60;;;5.10;;
7179;SDS011;3631;42.152;24.756;2023-02-19T14:09:58;7.85;;;6.65;;
7179;SDS011;3631;42.152;24.756;2023-02-19T14:12:29;8.10;;;5.45;;
7179;SDS011;3631;42.152;24.756;2023-02-19T14:14:57;6.82;;;5.68;;
7179;SDS011;3631;42.152;24.756;2023-02-19T14:21:05;4.78;;;4.38;;
7179;SDS011;3631;42.152;24.756;2023-02-19T14:23:40;4.15;;;3.72;;
7179;SDS011;3631;42.152;24.756;2023-02-19T14:26:07;4.10;;;3.80;;
7179;SDS011;3631;42.152;24.756;2023-02-19T14:28:35;4.20;;;3.80;;
7179;SDS011;3631;42.152;24.756;2023-02-19T14:31:08;5.40;;;4.20;;
7179;SDS011;3631;42.152;24.756;2023-02-19T14:33:45;4.88;;;4.47;;
7179;SDS011;3631;42.152;24.756;2023-02-19T14:36:19;4.95;;;4.38;;
7179;SDS011;3631;42.152;24.756;2023-02-19T14:38:55;4.88;;;4.43;;
7179;SDS011;3631;42.152;24.756;2023-02-19T14:41:24;4.20;;;3.80;;
7179;SDS011;3631;42.152;24.756;2023-02-19T14:43:54;4.82;;;4.32;;
7179;SDS011;3631;42.152;24.756;2023-02-19T14:46:27;4.68;;;4.20;;
7179;SDS011;3631;42.152;24.756;2023-02-19T14:48:57;5.03;;;4.10;;
7179;SDS011;3631;42.152;24.756;2023-02-19T14:51:29;6.65;;;4.80;;
7179;SDS011;3631;42.152;24.756;2023-02-19T14:54:05;8.65;;;4.70;;
7179;SDS011;3631;42.152;24.756;2023-02-19T14:56:37;7.07;;;6.28;;
7179;SDS011;3631;42.152;24.756;2023-02-19T14:59:06;7.07;;;6.47;;
7179;SDS011;3631;42.152;24.756;2023-02-19T15:01:52;8.60;;;6.43;;
7179;SDS011;3631;42.152;24.756;2023-02-19T15:04:23;6.70;;;6.18;;
7179;SDS011;3631;42.152;24.756;2023-02-19T15:06:52;9.55;;;8.30;;
7179;SDS011;3631;42.152;24.756;2023-02-19T15:09:23;12.82;;;10.55;;
7179;SDS011;3631;42.152;24.756;2023-02-19T15:11:56;11.98;;;9.43;;
7179;SDS011;3631;42.152;24.756;2023-02-19T15:14:23;8.45;;;7.10;;
7179;SDS011;3631;42.152;24.756;2023-02-19T15:16:56;8.77;;;6.57;;
7179;SDS011;3631;42.152;24.756;2023-02-19T15:19:25;6.30;;;5.70;;
7179;SDS011;3631;42.152;24.756;2023-02-19T15:21:53;7.20;;;6.28;;
7179;SDS011;3631;42.152;24.756;2023-02-19T15:24:20;5.82;;;5.38;;
7179;SDS011;3631;42.152;24.756;2023-02-19T15:26:49;6.63;;;5.70;;
7179;SDS011;3631;42.152;24.756;2023-02-19T15:29:19;5.78;;;5.28;;
7179;SDS011;3631;42.152;24.756;2023-02-19T15:31:48;8.35;;;6.10;;
7179;SDS011;3631;42.152;24.756;2023-02-19T15:34:17;9.15;;;7.15;;
7179;SDS011;3631;42.152;24.756;2023-02-19T15:36:45;9.57;;;8.57;;
7179;SDS011;3631;42.152;24.756;2023-02-19T15:39:16;9.60;;;7.43;;
7179;SDS011;3631;42.152;24.756;2023-02-19T15:41:52;7.32;;;6.38;;
7179;SDS011;3631;42.152;24.756;2023-02-19T15:44:27;6.32;;;5.72;;
7179;SDS011;3631;42.152;24.756;2023-02-19T15:47:03;10.70;;;5.95;;
7179;SDS011;3631;42.152;24.756;2023-02-19T15:49:40;7.93;;;7.03;;
7179;SDS011;3631;42.152;24.756;2023-02-19T15:52:15;6.90;;;6.30;;
7179;SDS011;3631;42.152;24.756;2023-02-19T15:54:49;10.63;;;6.22;;
7179;SDS011;3631;42.152;24.756;2023-02-19T15:57:23;8.07;;;6.63;;
7179;SDS011;3631;42.152;24.756;2023-02-19T15:59:57;10.93;;;6.68;;
7179;SDS011;3631;42.152;24.756;2023-02-19T16:02:29;11.52;;;7.15;;
7179;SDS011;3631;42.152;24.756;2023-02-19T16:04:57;9.27;;;7.93;;